KRDR/RDR METAR and TAF weather

Enter ICAO airport designator
Station Type Date Time Source
KRDR METAR 2020/07/11 23:56 UTC NOAA

KRDR 112356Z AUTO 02008KT 10SM CLR 26/18 A2998 RMK AO2 SLP154 60010 T02620181 10270 20205 55001 $


Station Type Date Time Source
KRDR Decoded METAR 2020/07/11 23:56 UTC NOAA

Grand Forks Air Force Base, ND, United States (KRDR) 47-58N 097-24W 278M
Jul 11, 2020 - 07:56 PM EDT / 2020.07.11 2356 UTC
Wind: from the NNE (020 degrees) at 9 MPH (8 KT):0
Visibility: 10 mile(s):0
Sky conditions: clear
Temperature: 79.2 F (26.2 C)
Dew Point: 64.6 F (18.1 C)
Relative Humidity: 61%
Pressure (altimeter): 29.98 in. Hg (1015 hPa)
Pressure tendency: 0.00 inches (0.1 hPa) lower than three hours ago
ob: KRDR 112356Z AUTO 02008KT 10SM CLR 26/18 A2998 RMK AO2 SLP154 60010 T02620181 10270 20205 55001
cycle: 0

Station Type Date Time Source
KRDR TAF 2020/07/11 20:54 UTC NOAA

TAF
AMD KRDR 112000Z 1120/1224 VRB06KT 9999 SCT030 QNH2995INS
TEMPO 1120/1121 -TSRA BKN030CB OVC040
BECMG 1121/1122 VRB06KT 9999 SCT055 QNH2994INS TX26/1218Z TN15/1211Z

Example: see airport list